Date,TemperatureHighF,TemperatureAvgF,TemperatureLowF,DewpointHighF,DewpointAvgF,DewpointLowF,HumidityHigh,HumidityAvg,HumidityLow,PressureMaxIn,PressureMinIn,WindSpeedMaxMPH,WindSpeedAvgMPH,GustSpeedMaxMPH,PrecipitationSumIn
2013-4-1,43,36,31,29,27,25,82,69,54,30.10,30.00,24,12,24,0.00
2013-4-2,45,39,34,32,29,26,82,67,53,30.27,30.11,18,6,18,0.00
2013-4-3,48,40,33,34,30,28,89,70,48,30.33,30.27,15,6,15,0.00
2013-4-4,48,41,33,33,30,28,85,67,47,30.32,30.25,20,5,20,0.00
2013-4-5,49,41,35,36,33,31,88,72,53,30.29,30.24,13,3,13,0.00
2013-4-6,47,40,31,39,34,28,93,82,66,30.30,30.22,23,5,23,0.00
2013-4-7,46,41,37,38,36,34,88,83,72,30.22,29.99,25,9,25,0.00
2013-4-8,44,39,35,34,32,28,89,76,56,29.99,29.74,26,12,26,0.00
2013-4-9,46,40,33,34,28,21,81,65,39,29.75,29.66,24,12,24,0.00
2013-4-10,47,41,37,38,36,34,89,82,71,29.72,29.59,21,10,21,0.00
2013-4-11,44,40,38,40,37,35,93,88,85,29.59,29.41,21,11,21,0.20
2013-4-12,42,40,36,41,38,34,94,92,88,29.67,29.39,20,8,20,0.01
2013-4-13,53,45,40,48,41,39,95,86,61,29.74,29.39,24,8,24,0.05
2013-4-14,55,52,48,50,48,46,97,88,75,29.44,29.36,43,22,43,0.13
2013-4-15,54,50,47,48,46,43,96,85,73,29.74,29.44,43,17,43,0.00
2013-4-16,51,48,46,47,44,40,97,84,66,29.85,29.33,51,27,51,0.00
2013-4-17,53,47,42,50,44,39,95,89,76,29.85,29.10,38,14,38,0.65
2013-4-18,50,48,45,47,43,39,96,85,72,29.94,29.08,48,22,48,0.02
2013-4-19,52,46,38,42,38,35,87,73,56,30.43,29.95,24,10,24,0.00
2013-4-20,53,48,42,44,43,40,92,81,68,30.43,30.13,31,13,31,0.00
2013-4-21,50,47,43,45,42,40,92,85,70,30.13,29.86,29,13,29,0.12
2013-4-22,53,48,46,49,44,41,96,84,69,29.86,29.63,43,20,43,0.00
2013-4-23,52,50,48,44,42,40,85,76,68,30.06,29.75,37,21,37,0.00
2013-4-24,51,48,45,47,42,35,96,80,58,30.24,29.89,29,11,29,0.34
2013-4-25,50,45,42,42,40,37,92,84,66,30.23,30.05,31,12,31,0.04
2013-4-26,51,44,39,41,38,36,93,81,62,30.06,29.88,32,12,32,0.09
2013-4-27,52,45,39,38,34,31,91,67,47,30.16,29.98,25,9,25,0.00
2013-4-28,49,45,41,45,41,36,96,85,67,29.98,29.63,36,21,36,0.00
2013-4-29,50,46,43,41,39,36,90,76,61,30.12,29.64,39,21,39,0.00
2013-4-30,51,46,38,42,37,35,89,72,55,30.31,30.13,23,8,23,0.00